sensor_id;sensor_type;location;lat;lon;timestamp;pressure;altitude;pressure_sealevel;temperature;humidity
1401;BME280;46518;48.842;8.926;2022-09-09T00:02:19;96766.59;;;16.92;70.02
1401;BME280;46518;48.842;8.926;2022-09-09T00:04:58;96764.03;;;16.87;69.91
1401;BME280;46518;48.842;8.926;2022-09-09T00:07:38;96764.94;;;16.96;70.17
1401;BME280;46518;48.842;8.926;2022-09-09T00:10:17;96769.66;;;16.85;70.33
1401;BME280;46518;48.842;8.926;2022-09-09T00:12:54;96758.44;;;16.88;69.85
1401;BME280;46518;48.842;8.926;2022-09-09T00:15:28;96761.50;;;16.95;70.02
1401;BME280;46518;48.842;8.926;2022-09-09T00:18:03;96760.72;;;16.95;69.30
1401;BME280;46518;48.842;8.926;2022-09-09T00:20:38;96755.97;;;16.92;69.56
1401;BME280;46518;48.842;8.926;2022-09-09T00:23:12;96757.84;;;16.91;69.94
1401;BME280;46518;48.842;8.926;2022-09-09T00:25:46;96768.69;;;16.95;70.13
1401;BME280;46518;48.842;8.926;2022-09-09T00:28:22;96760.78;;;16.90;70.39
1401;BME280;46518;48.842;8.926;2022-09-09T00:30:50;96759.41;;;16.92;70.04
1401;BME280;46518;48.842;8.926;2022-09-09T00:33:20;96751.63;;;16.96;69.51
1401;BME280;46518;48.842;8.926;2022-09-09T00:35:53;96751.53;;;17.01;69.71
1401;BME280;46518;48.842;8.926;2022-09-09T00:38:25;96749.47;;;16.98;69.91
1401;BME280;46518;48.842;8.926;2022-09-09T00:41:00;96757.13;;;16.99;69.99
1401;BME280;46518;48.842;8.926;2022-09-09T00:43:35;96756.75;;;17.06;69.73
1401;BME280;46518;48.842;8.926;2022-09-09T00:49:15;96755.78;;;17.16;69.46
1401;BME280;46518;48.842;8.926;2022-09-09T00:51:58;96769.75;;;17.21;69.28
1401;BME280;46518;48.842;8.926;2022-09-09T00:54:38;96759.91;;;17.22;68.92
1401;BME280;46518;48.842;8.926;2022-09-09T00:57:15;96756.94;;;17.23;68.47
1401;BME280;46518;48.842;8.926;2022-09-09T00:59:57;96754.69;;;17.31;68.18
1401;BME280;46518;48.842;8.926;2022-09-09T01:02:28;96750.34;;;17.35;68.70
1401;BME280;46518;48.842;8.926;2022-09-09T01:05:04;96751.81;;;17.41;68.57
1401;BME280;46518;48.842;8.926;2022-09-09T01:07:33;96742.84;;;17.37;68.06
1401;BME280;46518;48.842;8.926;2022-09-09T01:10:07;96746.50;;;17.41;67.85
1401;BME280;46518;48.842;8.926;2022-09-09T01:12:41;96749.03;;;17.46;68.41
1401;BME280;46518;48.842;8.926;2022-09-09T01:15:21;96755.91;;;17.61;68.39
1401;BME280;46518;48.842;8.926;2022-09-09T01:21:05;96760.34;;;17.52;68.24
1401;BME280;46518;48.842;8.926;2022-09-09T01:24:04;96764.78;;;17.56;67.87
1401;BME280;46518;48.842;8.926;2022-09-09T01:26:58;96759.69;;;17.46;68.28
1401;BME280;46518;48.842;8.926;2022-09-09T01:29:28;96759.91;;;17.36;68.51
1401;BME280;46518;48.842;8.926;2022-09-09T01:31:58;96764.31;;;17.40;68.85
1401;BME280;46518;48.842;8.926;2022-09-09T01:34:31;96767.00;;;17.40;69.38
1401;BME280;46518;48.842;8.926;2022-09-09T01:37:03;96770.03;;;17.48;69.77
1401;BME280;46518;48.842;8.926;2022-09-09T01:39:35;96766.28;;;17.49;69.76
1401;BME280;46518;48.842;8.926;2022-09-09T01:42:11;96771.72;;;17.43;70.09
1401;BME280;46518;48.842;8.926;2022-09-09T01:44:40;96780.78;;;17.29;70.33
1401;BME280;46518;48.842;8.926;2022-09-09T01:47:09;96776.84;;;17.12;70.83
1401;BME280;46518;48.842;8.926;2022-09-09T01:50:04;96781.38;;;17.12;70.62
1401;BME280;46518;48.842;8.926;2022-09-09T01:52:35;96782.97;;;17.13;70.84
1401;BME280;46518;48.842;8.926;2022-09-09T01:55:08;96768.50;;;17.05;70.81
1401;BME280;46518;48.842;8.926;2022-09-09T01:57:46;96759.50;;;17.01;70.48
1401;BME280;46518;48.842;8.926;2022-09-09T02:00:17;96758.41;;;17.02;71.22
1401;BME280;46518;48.842;8.926;2022-09-09T02:02:56;96757.44;;;16.84;72.72
1401;BME280;46518;48.842;8.926;2022-09-09T02:05:37;96750.25;;;16.85;72.35
1401;BME280;46518;48.842;8.926;2022-09-09T02:08:18;96761.28;;;16.78;72.72
1401;BME280;46518;48.842;8.926;2022-09-09T02:10:56;96749.28;;;16.80;72.63
1401;BME280;46518;48.842;8.926;2022-09-09T02:13:38;96754.50;;;16.86;72.49
1401;BME280;46518;48.842;8.926;2022-09-09T02:16:13;96763.25;;;16.86;72.46
1401;BME280;46518;48.842;8.926;2022-09-09T02:18:49;96776.03;;;16.84;72.54
1401;BME280;46518;48.842;8.926;2022-09-09T02:21:23;96772.69;;;16.78;72.92
1401;BME280;46518;48.842;8.926;2022-09-09T02:23:55;96772.88;;;16.82;73.25
1401;BME280;46518;48.842;8.926;2022-09-09T02:26:26;96764.19;;;16.76;73.01
1401;BME280;46518;48.842;8.926;2022-09-09T02:29:05;96765.63;;;16.88;72.67
1401;BME280;46518;48.842;8.926;2022-09-09T02:31:36;96770.44;;;16.86;72.67
1401;BME280;46518;48.842;8.926;2022-09-09T02:34:12;96759.41;;;16.78;73.06
1401;BME280;46518;48.842;8.926;2022-09-09T02:36:42;96752.00;;;16.75;73.26
1401;BME280;46518;48.842;8.926;2022-09-09T02:39:13;96761.44;;;16.68;73.99
1401;BME280;46518;48.842;8.926;2022-09-09T02:41:42;96754.75;;;16.70;73.88
1401;BME280;46518;48.842;8.926;2022-09-09T02:44:13;96753.47;;;16.68;74.32
1401;BME280;46518;48.842;8.926;2022-09-09T02:47:08;96744.41;;;16.69;74.51
1401;BME280;46518;48.842;8.926;2022-09-09T02:49:44;96743.31;;;16.70;74.60
1401;BME280;46518;48.842;8.926;2022-09-09T02:52:21;96736.31;;;16.60;74.38
1401;BME280;46518;48.842;8.926;2022-09-09T02:54:59;96725.19;;;16.58;74.10
1401;BME280;46518;48.842;8.926;2022-09-09T02:57:31;96733.06;;;16.63;73.69
1401;BME280;46518;48.842;8.926;2022-09-09T03:00:03;96737.28;;;16.64;73.83
1401;BME280;46518;48.842;8.926;2022-09-09T03:02:33;96736.59;;;16.58;74.29
1401;BME280;46518;48.842;8.926;2022-09-09T03:05:06;96724.78;;;16.51;74.50
1401;BME280;46518;48.842;8.926;2022-09-09T03:07:34;96724.28;;;16.49;74.49
1401;BME280;46518;48.842;8.926;2022-09-09T03:10:03;96729.59;;;16.49;74.42
1401;BME280;46518;48.842;8.926;2022-09-09T03:12:31;96726.06;;;16.53;73.96
1401;BME280;46518;48.842;8.926;2022-09-09T03:15:00;96728.22;;;16.51;73.50
1401;BME280;46518;48.842;8.926;2022-09-09T03:17:29;96729.69;;;16.44;73.79
1401;BME280;46518;48.842;8.926;2022-09-09T03:19:57;96732.94;;;16.41;73.87
1401;BME280;46518;48.842;8.926;2022-09-09T03:22:26;96728.41;;;16.41;73.83
1401;BME280;46518;48.842;8.926;2022-09-09T03:24:57;96726.75;;;16.45;73.63
1401;BME280;46518;48.842;8.926;2022-09-09T03:27:25;96726.25;;;16.43;73.37
1401;BME280;46518;48.842;8.926;2022-09-09T03:29:54;96741.69;;;16.41;73.22
1401;BME280;46518;48.842;8.926;2022-09-09T03:32:24;96738.16;;;16.46;73.05
1401;BME280;46518;48.842;8.926;2022-09-09T03:34:56;96749.47;;;16.37;73.02
1401;BME280;46518;48.842;8.926;2022-09-09T03:37:24;96742.06;;;16.34;73.02
1401;BME280;46518;48.842;8.926;2022-09-09T03:39:53;96740.22;;;16.35;72.76
1401;BME280;46518;48.842;8.926;2022-09-09T03:42:22;96749.03;;;16.30;72.66
1401;BME280;46518;48.842;8.926;2022-09-09T03:44:53;96749.81;;;16.31;72.52
1401;BME280;46518;48.842;8.926;2022-09-09T03:47:23;96759.88;;;16.34;72.48
1401;BME280;46518;48.842;8.926;2022-09-09T03:49:58;96754.78;;;16.37;72.75
1401;BME280;46518;48.842;8.926;2022-09-09T03:52:27;96747.59;;;16.38;72.77
1401;BME280;46518;48.842;8.926;2022-09-09T03:54:57;96753.19;;;16.36;72.49
1401;BME280;46518;48.842;8.926;2022-09-09T03:57:25;96755.84;;;16.36;72.62
1401;BME280;46518;48.842;8.926;2022-09-09T03:59:53;96752.69;;;16.34;72.55
1401;BME280;46518;48.842;8.926;2022-09-09T04:02:21;96759.16;;;16.28;72.67
1401;BME280;46518;48.842;8.926;2022-09-09T04:04:50;96755.00;;;16.22;72.73
1401;BME280;46518;48.842;8.926;2022-09-09T04:07:20;96754.53;;;16.20;73.05
1401;BME280;46518;48.842;8.926;2022-09-09T04:09:48;96753.28;;;16.12;73.18
1401;BME280;46518;48.842;8.926;2022-09-09T04:12:17;96751.22;;;16.09;73.95
1401;BME280;46518;48.842;8.926;2022-09-09T04:14:45;96750.44;;;16.09;74.11
1401;BME280;46518;48.842;8.926;2022-09-09T04:17:14;96746.69;;;16.10;74.03
1401;BME280;46518;48.842;8.926;2022-09-09T04:19:42;96764.81;;;16.08;74.13
1401;BME280;46518;48.842;8.926;2022-09-09T04:22:11;96757.91;;;16.07;74.46
1401;BME280;46518;48.842;8.926;2022-09-09T04:24:40;96760.63;;;16.02;74.52
1401;BME280;46518;48.842;8.926;2022-09-09T04:27:15;96746.69;;;16.10;74.96
1401;BME280;46518;48.842;8.926;2022-09-09T04:29:43;96760.78;;;16.10;74.39
1401;BME280;46518;48.842;8.926;2022-09-09T04:32:12;96758.59;;;16.12;74.08
1401;BME280;46518;48.842;8.926;2022-09-09T04:34:40;96752.44;;;16.17;73.56
1401;BME280;46518;48.842;8.926;2022-09-09T04:37:09;96760.47;;;16.12;73.35
1401;BME280;46518;48.842;8.926;2022-09-09T04:39:39;96763.91;;;16.12;73.22
1401;BME280;46518;48.842;8.926;2022-09-09T04:42:07;96765.28;;;16.10;73.38
1401;BME280;46518;48.842;8.926;2022-09-09T04:44:35;96766.94;;;16.06;73.29
1401;BME280;46518;48.842;8.926;2022-09-09T04:47:04;96775.34;;;16.13;73.09
1401;BME280;46518;48.842;8.926;2022-09-09T04:49:32;96768.75;;;16.10;73.21
1401;BME280;46518;48.842;8.926;2022-09-09T04:52:00;96777.13;;;16.17;73.58
1401;BME280;46518;48.842;8.926;2022-09-09T04:54:30;96781.94;;;16.15;73.62
1401;BME280;46518;48.842;8.926;2022-09-09T04:57:00;96780.06;;;16.16;73.32
1401;BME280;46518;48.842;8.926;2022-09-09T04:59:28;96785.38;;;16.16;73.73
1401;BME280;46518;48.842;8.926;2022-09-09T05:01:59;96791.63;;;16.25;73.42
1401;BME280;46518;48.842;8.926;2022-09-09T05:04:28;96790.53;;;16.26;73.02
1401;BME280;46518;48.842;8.926;2022-09-09T05:06:57;96793.38;;;16.30;73.22
1401;BME280;46518;48.842;8.926;2022-09-09T05:09:26;96795.97;;;16.35;73.13
1401;BME280;46518;48.842;8.926;2022-09-09T05:11:54;96792.50;;;16.34;73.06
1401;BME280;46518;48.842;8.926;2022-09-09T05:14:29;96797.13;;;16.29;72.67
1401;BME280;46518;48.842;8.926;2022-09-09T05:16:59;96789.56;;;16.36;72.59
1401;BME280;46518;48.842;8.926;2022-09-09T05:19:27;96783.22;;;16.51;72.45
1401;BME280;46518;48.842;8.926;2022-09-09T05:21:55;96798.16;;;16.47;72.71
1401;BME280;46518;48.842;8.926;2022-09-09T05:24:31;96796.00;;;16.49;72.60
1401;BME280;46518;48.842;8.926;2022-09-09T05:27:01;96793.28;;;16.54;72.04
1401;BME280;46518;48.842;8.926;2022-09-09T05:29:30;96809.78;;;16.51;72.33
1401;BME280;46518;48.842;8.926;2022-09-09T05:32:02;96809.50;;;16.52;72.75
1401;BME280;46518;48.842;8.926;2022-09-09T05:34:31;96809.13;;;16.59;72.40
1401;BME280;46518;48.842;8.926;2022-09-09T05:37:00;96805.78;;;16.67;72.17
1401;BME280;46518;48.842;8.926;2022-09-09T05:39:28;96794.72;;;16.79;71.78
1401;BME280;46518;48.842;8.926;2022-09-09T05:41:56;96798.31;;;16.69;71.93
1401;BME280;46518;48.842;8.926;2022-09-09T05:44:24;96803.72;;;16.64;71.69
1401;BME280;46518;48.842;8.926;2022-09-09T05:46:55;96805.59;;;16.64;72.12
1401;BME280;46518;48.842;8.926;2022-09-09T05:49:25;96806.38;;;16.64;71.77
1401;BME280;46518;48.842;8.926;2022-09-09T05:51:53;96808.44;;;16.53;72.74
1401;BME280;46518;48.842;8.926;2022-09-09T05:54:22;96809.50;;;16.52;72.06
1401;BME280;46518;48.842;8.926;2022-09-09T05:56:51;96809.00;;;16.50;72.50
1401;BME280;46518;48.842;8.926;2022-09-09T05:59:20;96812.38;;;16.56;72.51
1401;BME280;46518;48.842;8.926;2022-09-09T06:01:51;96817.16;;;16.73;71.86
1401;BME280;46518;48.842;8.926;2022-09-09T06:04:26;96819.50;;;16.74;71.90
1401;BME280;46518;48.842;8.926;2022-09-09T06:06:55;96813.75;;;16.67;72.28
1401;BME280;46518;48.842;8.926;2022-09-09T06:09:23;96819.50;;;16.74;72.47
1401;BME280;46518;48.842;8.926;2022-09-09T06:11:51;96815.22;;;16.78;71.88
1401;BME280;46518;48.842;8.926;2022-09-09T06:14:20;96813.66;;;16.72;72.07
1401;BME280;46518;48.842;8.926;2022-09-09T06:16:51;96811.47;;;16.79;71.37
1401;BME280;46518;48.842;8.926;2022-09-09T06:19:26;96816.84;;;16.74;71.43
1401;BME280;46518;48.842;8.926;2022-09-09T06:21:57;96812.97;;;16.67;71.69
1401;BME280;46518;48.842;8.926;2022-09-09T06:24:26;96815.34;;;16.68;71.89
1401;BME280;46518;48.842;8.926;2022-09-09T06:26:57;96820.66;;;16.68;71.73
1401;BME280;46518;48.842;8.926;2022-09-09T06:29:28;96827.13;;;16.62;71.93
1401;BME280;46518;48.842;8.926;2022-09-09T06:31:56;96817.88;;;16.59;72.06
1401;BME280;46518;48.842;8.926;2022-09-09T06:34:27;96814.75;;;16.57;72.17
1401;BME280;46518;48.842;8.926;2022-09-09T06:36:57;96818.03;;;16.49;72.43
1401;BME280;46518;48.842;8.926;2022-09-09T06:39:32;96824.38;;;16.53;73.16
1401;BME280;46518;48.842;8.926;2022-09-09T06:42:00;96821.97;;;16.52;72.90
1401;BME280;46518;48.842;8.926;2022-09-09T06:44:45;96821.25;;;16.65;73.45
1401;BME280;46518;48.842;8.926;2022-09-09T06:47:31;96820.31;;;16.75;74.25
1401;BME280;46518;48.842;8.926;2022-09-09T06:50:02;96827.91;;;16.81;72.99
1401;BME280;46518;48.842;8.926;2022-09-09T06:52:32;96824.50;;;16.95;72.99
1401;BME280;46518;48.842;8.926;2022-09-09T06:55:02;96825.88;;;17.06;72.69
1401;BME280;46518;48.842;8.926;2022-09-09T06:57:31;96830.00;;;17.12;72.58
1401;BME280;46518;48.842;8.926;2022-09-09T07:00:17;96826.69;;;17.20;72.01
1401;BME280;46518;48.842;8.926;2022-09-09T07:02:45;96828.06;;;17.32;72.04
1401;BME280;46518;48.842;8.926;2022-09-09T07:05:15;96832.22;;;17.38;71.60
1401;BME280;46518;48.842;8.926;2022-09-09T07:07:45;96828.06;;;17.45;71.59
1401;BME280;46518;48.842;8.926;2022-09-09T07:10:16;96836.25;;;17.49;71.33
1401;BME280;46518;48.842;8.926;2022-09-09T07:12:44;96836.44;;;17.53;71.10
1401;BME280;46518;48.842;8.926;2022-09-09T07:15:13;96840.97;;;17.52;71.20
1401;BME280;46518;48.842;8.926;2022-09-09T07:17:45;96834.78;;;17.43;71.60
1401;BME280;46518;48.842;8.926;2022-09-09T07:20:15;96837.63;;;17.46;72.11
1401;BME280;46518;48.842;8.926;2022-09-09T07:22:43;96830.13;;;17.49;73.08
1401;BME280;46518;48.842;8.926;2022-09-09T07:25:12;96833.78;;;17.53;72.46
1401;BME280;46518;48.842;8.926;2022-09-09T07:27:41;96837.63;;;17.60;72.07
1401;BME280;46518;48.842;8.926;2022-09-09T07:30:10;96833.97;;;17.70;72.57
1401;BME280;46518;48.842;8.926;2022-09-09T07:32:47;96825.56;;;17.77;72.81
1401;BME280;46518;48.842;8.926;2022-09-09T07:35:16;96832.41;;;17.83;72.82
1401;BME280;46518;48.842;8.926;2022-09-09T07:37:45;96809.50;;;17.82;72.89
1401;BME280;46518;48.842;8.926;2022-09-09T07:40:18;96825.41;;;18.09;72.72
1401;BME280;46518;48.842;8.926;2022-09-09T07:42:48;96833.09;;;18.25;71.70
1401;BME280;46518;48.842;8.926;2022-09-09T07:45:17;96829.56;;;18.38;71.33
1401;BME280;46518;48.842;8.926;2022-09-09T07:47:45;96834.63;;;18.40;71.13
1401;BME280;46518;48.842;8.926;2022-09-09T07:50:15;96823.09;;;18.30;69.97
1401;BME280;46518;48.842;8.926;2022-09-09T07:52:45;96828.22;;;18.49;69.94
1401;BME280;46518;48.842;8.926;2022-09-09T07:55:13;96824.25;;;18.61;69.84
1401;BME280;46518;48.842;8.926;2022-09-09T07:57:42;96830.53;;;18.65;68.45
1401;BME280;46518;48.842;8.926;2022-09-09T08:00:12;96840.06;;;18.57;70.00
1401;BME280;46518;48.842;8.926;2022-09-09T08:02:52;96805.19;;;18.45;70.61
1401;BME280;46518;48.842;8.926;2022-09-09T08:05:25;96831.69;;;18.50;67.88
1401;BME280;46518;48.842;8.926;2022-09-09T08:07:57;96823.22;;;18.48;69.38
1401;BME280;46518;48.842;8.926;2022-09-09T08:10:28;96821.03;;;18.50;70.17
1401;BME280;46518;48.842;8.926;2022-09-09T08:12:57;96844.78;;;18.60;70.19
1401;BME280;46518;48.842;8.926;2022-09-09T08:15:45;96851.25;;;18.68;69.91
1401;BME280;46518;48.842;8.926;2022-09-09T08:18:19;96823.88;;;18.53;68.42
1401;BME280;46518;48.842;8.926;2022-09-09T08:20:47;96837.59;;;18.69;67.68
1401;BME280;46518;48.842;8.926;2022-09-09T08:23:17;96845.72;;;18.64;67.75
1401;BME280;46518;48.842;8.926;2022-09-09T08:26:02;96843.41;;;18.85;67.77
1401;BME280;46518;48.842;8.926;2022-09-09T08:28:31;96831.94;;;18.85;67.19
1401;BME280;46518;48.842;8.926;2022-09-09T08:31:14;96831.63;;;19.17;67.82
1401;BME280;46518;48.842;8.926;2022-09-09T08:33:44;96819.28;;;19.30;67.78
1401;BME280;46518;48.842;8.926;2022-09-09T08:36:14;96803.91;;;19.27;65.14
1401;BME280;46518;48.842;8.926;2022-09-09T08:38:47;96823.66;;;19.26;65.29
1401;BME280;46518;48.842;8.926;2022-09-09T08:41:31;96847.59;;;19.49;64.49
1401;BME280;46518;48.842;8.926;2022-09-09T08:44:07;96835.50;;;19.43;65.28
1401;BME280;46518;48.842;8.926;2022-09-09T08:46:42;96853.72;;;19.49;65.46
1401;BME280;46518;48.842;8.926;2022-09-09T08:49:31;96841.31;;;19.45;65.18
1401;BME280;46518;48.842;8.926;2022-09-09T08:52:03;96844.47;;;19.55;64.13
1401;BME280;46518;48.842;8.926;2022-09-09T08:54:38;96833.75;;;19.47;63.64
1401;BME280;46518;48.842;8.926;2022-09-09T08:57:23;96838.38;;;19.55;64.40
1401;BME280;46518;48.842;8.926;2022-09-09T08:59:55;96822.69;;;19.62;63.49
1401;BME280;46518;48.842;8.926;2022-09-09T09:02:32;96830.22;;;19.60;64.22
1401;BME280;46518;48.842;8.926;2022-09-09T09:05:15;96838.06;;;19.65;63.64
1401;BME280;46518;48.842;8.926;2022-09-09T09:07:58;96853.06;;;19.83;61.63
1401;BME280;46518;48.842;8.926;2022-09-09T09:10:45;96854.66;;;20.02;61.29
1401;BME280;46518;48.842;8.926;2022-09-09T09:13:27;96832.81;;;20.00;59.41
1401;BME280;46518;48.842;8.926;2022-09-09T09:16:09;96842.56;;;20.04;59.21
1401;BME280;46518;48.842;8.926;2022-09-09T09:18:40;96845.88;;;20.10;59.96
1401;BME280;46518;48.842;8.926;2022-09-09T09:21:12;96849.19;;;20.24;60.50
1401;BME280;46518;48.842;8.926;2022-09-09T09:23:45;96840.53;;;20.28;59.43
1401;BME280;46518;48.842;8.926;2022-09-09T09:26:20;96841.16;;;20.24;58.55
1401;BME280;46518;48.842;8.926;2022-09-09T09:28:50;96833.16;;;20.24;59.87
1401;BME280;46518;48.842;8.926;2022-09-09T09:31:21;96839.75;;;20.10;59.21
1401;BME280;46518;48.842;8.926;2022-09-09T09:33:51;96831.56;;;20.06;61.53
1401;BME280;46518;48.842;8.926;2022-09-09T09:36:24;96820.25;;;20.09;61.18
1401;BME280;46518;48.842;8.926;2022-09-09T09:38:56;96825.28;;;20.19;58.76
1401;BME280;46518;48.842;8.926;2022-09-09T09:41:49;96820.72;;;20.37;61.11
1401;BME280;46518;48.842;8.926;2022-09-09T09:44:25;96808.44;;;20.36;54.82
1401;BME280;46518;48.842;8.926;2022-09-09T09:47:06;96817.22;;;20.54;54.42
1401;BME280;46518;48.842;8.926;2022-09-09T09:49:35;96821.34;;;20.60;56.75
1401;BME280;46518;48.842;8.926;2022-09-09T09:52:04;96822.31;;;20.56;57.73
1401;BME280;46518;48.842;8.926;2022-09-09T09:54:37;96799.63;;;20.53;58.47
1401;BME280;46518;48.842;8.926;2022-09-09T09:57:10;96815.97;;;20.69;59.83
1401;BME280;46518;48.842;8.926;2022-09-09T09:59:41;96800.91;;;20.64;59.94
1401;BME280;46518;48.842;8.926;2022-09-09T10:02:21;96790.22;;;20.47;58.54
1401;BME280;46518;48.842;8.926;2022-09-09T10:05:18;96802.16;;;20.41;56.99
1401;BME280;46518;48.842;8.926;2022-09-09T10:08:18;96799.81;;;20.31;57.58
1401;BME280;46518;48.842;8.926;2022-09-09T10:11:22;96809.69;;;20.39;58.35
1401;BME280;46518;48.842;8.926;2022-09-09T10:14:16;96787.22;;;20.40;59.93
1401;BME280;46518;48.842;8.926;2022-09-09T10:17:07;96815.84;;;20.65;59.28
1401;BME280;46518;48.842;8.926;2022-09-09T10:19:54;96808.72;;;20.78;58.19
1401;BME280;46518;48.842;8.926;2022-09-09T10:22:39;96804.81;;;20.76;56.44
1401;BME280;46518;48.842;8.926;2022-09-09T10:25:31;96790.78;;;20.79;54.77
1401;BME280;46518;48.842;8.926;2022-09-09T10:28:42;96801.31;;;20.84;55.89
1401;BME280;46518;48.842;8.926;2022-09-09T10:31:25;96800.19;;;20.94;56.16
1401;BME280;46518;48.842;8.926;2022-09-09T10:34:05;96801.94;;;20.89;54.29
1401;BME280;46518;48.842;8.926;2022-09-09T10:36:44;96809.63;;;20.91;52.75
1401;BME280;46518;48.842;8.926;2022-09-09T10:39:22;96808.56;;;20.83;50.05
1401;BME280;46518;48.842;8.926;2022-09-09T10:41:59;96816.63;;;20.75;49.16
1401;BME280;46518;48.842;8.926;2022-09-09T10:44:46;96802.72;;;20.90;49.36
1401;BME280;46518;48.842;8.926;2022-09-09T10:47:30;96807.69;;;21.09;49.17
1401;BME280;46518;48.842;8.926;2022-09-09T10:50:16;96813.06;;;21.00;53.33
1401;BME280;46518;48.842;8.926;2022-09-09T10:52:55;96835.50;;;20.35;53.98
1401;BME280;46518;48.842;8.926;2022-09-09T10:55:37;96824.19;;;20.03;54.91
1401;BME280;46518;48.842;8.926;2022-09-09T10:58:17;96825.53;;;19.74;55.42
1401;BME280;46518;48.842;8.926;2022-09-09T11:00:56;96844.97;;;19.66;56.13
1401;BME280;46518;48.842;8.926;2022-09-09T11:03:29;96847.22;;;19.33;57.76
1401;BME280;46518;48.842;8.926;2022-09-09T11:06:01;96875.44;;;19.25;59.01
1401;BME280;46518;48.842;8.926;2022-09-09T11:08:34;96876.47;;;18.84;61.20
1401;BME280;46518;48.842;8.926;2022-09-09T11:11:06;96875.75;;;18.92;61.77
1401;BME280;46518;48.842;8.926;2022-09-09T11:13:41;96872.47;;;18.95;61.82
1401;BME280;46518;48.842;8.926;2022-09-09T11:16:20;96876.75;;;19.05;62.37
1401;BME280;46518;48.842;8.926;2022-09-09T11:18:56;96882.22;;;19.00;62.66
1401;BME280;46518;48.842;8.926;2022-09-09T11:21:29;96878.88;;;18.72;63.95
1401;BME280;46518;48.842;8.926;2022-09-09T11:24:02;96870.31;;;18.39;65.47
1401;BME280;46518;48.842;8.926;2022-09-09T11:26:35;96901.41;;;18.43;68.06
1401;BME280;46518;48.842;8.926;2022-09-09T11:29:43;96895.47;;;18.46;69.50
1401;BME280;46518;48.842;8.926;2022-09-09T11:32:27;96891.41;;;18.49;69.79
1401;BME280;46518;48.842;8.926;2022-09-09T11:35:24;96879.09;;;18.62;69.26
1401;BME280;46518;48.842;8.926;2022-09-09T11:38:19;96877.25;;;18.40;69.27
1401;BME280;46518;48.842;8.926;2022-09-09T11:40:55;96878.56;;;18.51;71.23
1401;BME280;46518;48.842;8.926;2022-09-09T11:43:28;96867.91;;;18.73;72.05
1401;BME280;46518;48.842;8.926;2022-09-09T11:46:00;96844.97;;;18.86;70.80
1401;BME280;46518;48.842;8.926;2022-09-09T11:48:32;96848.69;;;19.08;69.36
1401;BME280;46518;48.842;8.926;2022-09-09T11:51:05;96813.81;;;18.95;69.10
1401;BME280;46518;48.842;8.926;2022-09-09T11:53:49;96829.19;;;19.38;67.83
1401;BME280;46518;48.842;8.926;2022-09-09T11:56:26;96825.16;;;19.58;64.49
1401;BME280;46518;48.842;8.926;2022-09-09T11:58:57;96823.50;;;19.71;64.06
1401;BME280;46518;48.842;8.926;2022-09-09T12:01:35;96825.25;;;19.93;61.71
1401;BME280;46518;48.842;8.926;2022-09-09T12:04:16;96806.13;;;20.00;60.65
1401;BME280;46518;48.842;8.926;2022-09-09T12:06:52;96783.47;;;20.06;61.54
1401;BME280;46518;48.842;8.926;2022-09-09T12:09:27;96799.19;;;20.34;59.17
1401;BME280;46518;48.842;8.926;2022-09-09T12:12:21;96804.97;;;20.53;56.19
1401;BME280;46518;48.842;8.926;2022-09-09T12:14:59;96790.66;;;20.66;55.78
1401;BME280;46518;48.842;8.926;2022-09-09T12:17:31;96797.25;;;20.78;56.67
1401;BME280;46518;48.842;8.926;2022-09-09T12:20:11;96788.69;;;20.93;53.98
1401;BME280;46518;48.842;8.926;2022-09-09T12:22:51;96801.59;;;20.91;54.08
1401;BME280;46518;48.842;8.926;2022-09-09T12:25:33;96787.16;;;20.92;50.71
1401;BME280;46518;48.842;8.926;2022-09-09T12:28:08;96802.13;;;21.23;52.55
1401;BME280;46518;48.842;8.926;2022-09-09T12:30:46;96779.69;;;21.45;50.91
1401;BME280;46518;48.842;8.926;2022-09-09T12:33:18;96787.41;;;21.38;48.89
1401;BME280;46518;48.842;8.926;2022-09-09T12:35:51;96786.97;;;21.65;49.88
1401;BME280;46518;48.842;8.926;2022-09-09T12:38:29;96784.09;;;21.91;51.03
1401;BME280;46518;48.842;8.926;2022-09-09T12:40:59;96783.72;;;22.02;52.13
1401;BME280;46518;48.842;8.926;2022-09-09T12:43:28;96792.22;;;22.25;52.44
1401;BME280;46518;48.842;8.926;2022-09-09T12:45:59;96784.03;;;22.42;48.91
1401;BME280;46518;48.842;8.926;2022-09-09T12:48:33;96783.72;;;22.56;49.23
1401;BME280;46518;48.842;8.926;2022-09-09T12:51:05;96775.94;;;22.63;49.65
1401;BME280;46518;48.842;8.926;2022-09-09T12:53:37;96774.66;;;22.81;47.84
1401;BME280;46518;48.842;8.926;2022-09-09T12:56:08;96766.16;;;22.92;46.21
1401;BME280;46518;48.842;8.926;2022-09-09T12:58:46;96780.72;;;23.03;47.13
1401;BME280;46518;48.842;8.926;2022-09-09T13:01:21;96770.66;;;23.00;47.17
1401;BME280;46518;48.842;8.926;2022-09-09T13:03:50;96770.22;;;23.10;48.15
1401;BME280;46518;48.842;8.926;2022-09-09T13:06:21;96763.50;;;23.16;48.13
1401;BME280;46518;48.842;8.926;2022-09-09T13:08:57;96766.06;;;23.37;45.33
1401;BME280;46518;48.842;8.926;2022-09-09T13:11:29;96766.41;;;23.36;44.05
1401;BME280;46518;48.842;8.926;2022-09-09T13:13:58;96765.84;;;23.30;45.97
1401;BME280;46518;48.842;8.926;2022-09-09T13:16:29;96762.38;;;23.42;45.42
1401;BME280;46518;48.842;8.926;2022-09-09T13:19:02;96770.66;;;23.24;46.11
1401;BME280;46518;48.842;8.926;2022-09-09T13:21:35;96749.06;;;23.21;44.34
1401;BME280;46518;48.842;8.926;2022-09-09T13:24:21;96763.72;;;23.11;43.55
1401;BME280;46518;48.842;8.926;2022-09-09T13:26:54;96759.16;;;22.99;42.29
1401;BME280;46518;48.842;8.926;2022-09-09T13:29:23;96768.78;;;22.67;44.78
1401;BME280;46518;48.842;8.926;2022-09-09T13:31:53;96760.19;;;22.61;45.88
1401;BME280;46518;48.842;8.926;2022-09-09T13:34:27;96762.66;;;22.12;45.82
1401;BME280;46518;48.842;8.926;2022-09-09T13:36:59;96750.72;;;21.68;45.95
1401;BME280;46518;48.842;8.926;2022-09-09T13:39:30;96758.28;;;21.66;47.83
1401;BME280;46518;48.842;8.926;2022-09-09T13:41:58;96752.47;;;21.34;48.37
1401;BME280;46518;48.842;8.926;2022-09-09T13:44:29;96749.34;;;21.32;48.97
1401;BME280;46518;48.842;8.926;2022-09-09T13:47:03;96729.19;;;21.05;48.72
1401;BME280;46518;48.842;8.926;2022-09-09T13:49:36;96743.91;;;21.20;49.53
1401;BME280;46518;48.842;8.926;2022-09-09T13:52:08;96740.28;;;21.16;49.90
1401;BME280;46518;48.842;8.926;2022-09-09T13:54:39;96750.88;;;21.03;49.32